Flight Track Log - Related Links

Times and Time Zones

All times are in EDT time to prevent confusion due to time zone crossing. See the AWE997 flight status page for this flight to view local times or setup timezone preferences in your user account.

Time Position Orientation Groundspeed Altitude Reporting Facility
EDT Latitude Longitude Course Direction KTS MPH feet Rate Location/Type
Wed 11:22:36 AM 42.0167 -87.8167 85° East 165 190 3,900  Level Chicago TRACON
Wed 11:23:36 AM 42.0500 -87.7500 56° Northeast 253 291 5,000 2,000 Climbing Chicago TRACON
Wed 11:24:00 AM 41.9351 -87.1575 95° East  Level FlightAware Approximate
Wed 11:24:36 AM 42.0833 -87.6500 66° East 277 319 7,900  Level Chicago TRACON
Wed 11:25:00 AM 41.9333 -86.9715 90° East  Level FlightAware Approximate
Wed 11:26:00 AM 41.9388 -86.7858 85° East  Level FlightAware Approximate
Wed 11:26:04 AM 42.1269 -87.5031 68° East 306 352 11,200  Level Chicago Center
Wed 11:27:00 AM 41.9492 -86.6292 85° East  Level FlightAware Approximate
Wed 11:27:05 AM 42.1553 -87.3797 73° East 337 388 13,200  Level Chicago Center
Wed 11:28:07 AM 42.1864 -87.2503 72° East 359 413 16,000 2,293 Climbing Chicago Center
Wed 11:29:08 AM 42.2181 -87.1242 71° East 356 410 17,900 1,525 Climbing Chicago Center
Wed 11:30:09 AM 42.2464 -86.9864 74° East 378 435 19,100 1,268 Climbing Chicago Center
Wed 11:31:11 AM 42.2453 -86.8439 91° East 376 433 20,500 1,073 Climbing Chicago Center
Wed 11:32:12 AM 42.2311 -86.6756 96° East 417 480 21,300 1,279 Climbing Chicago Center
Wed 11:33:13 AM 42.2172 -86.5078 96° East 448 516 23,100 1,500 Climbing Chicago Center
Wed 11:34:16 AM 42.2019 -86.3386 97° East 454 522 24,400 1,073 Climbing Chicago Center
Wed 11:35:16 AM 42.1831 -86.1628 98° East 471 542 25,300 1,033 Climbing Chicago Center
Wed 11:36:18 AM 42.1594 -85.9828 100° East 485 558 26,500 1,317 Climbing Chicago Center
Wed 11:37:19 AM 42.1358 -85.8000 100° East 492 566 28,000 1,317 Climbing Chicago Center
Wed 11:38:21 AM 42.1122 -85.6175 100° East 493 567 29,200 1,463 Climbing Chicago Center
Wed 11:39:22 AM 42.0833 -85.3997 100° East 490 564 31,000 1,200 Climbing Chicago Center
Wed 11:39:51 AM 42.0750 -85.3144 97° East 495 570 31,000  Level Cleveland Center
Wed 11:40:51 AM 42.0469 -85.1331 102° East 489 563 31,000  Level Cleveland Center
Wed 11:41:51 AM 42.0225 -84.9553 100° East 489 563 31,000  Level Cleveland Center
Wed 11:42:51 AM 41.9981 -84.7719 100° East 489 563 31,000  Level Cleveland Center
Wed 11:43:51 AM 41.9692 -84.5911 102° East 489 563 31,000  Level Cleveland Center
Wed 11:44:51 AM 41.9461 -84.4139 100° East 489 563 31,000  Level Cleveland Center
Wed 11:45:51 AM 41.9158 -84.2556 104° East 489 563 31,000  Level Cleveland Center
Wed 11:46:50 AM 41.8919 -84.0814 100° East 489 563 31,000  Level Cleveland Center
Wed 11:47:51 AM 41.8661 -83.9042 101° East 484 557 31,000  Level Cleveland Center
Wed 11:48:51 AM 41.8378 -83.7214 102° East 484 557 31,000  Level Cleveland Center
Wed 11:49:51 AM 41.8075 -83.5222 101° East 489 563 31,000  Level Cleveland Center
Wed 11:50:51 AM 41.7808 -83.3456 101° East 489 563 31,000  Level Cleveland Center
Wed 11:51:51 AM 41.7536 -83.1661 101° East 489 563 31,000  Level Cleveland Center
Wed 11:52:51 AM 41.7242 -82.9869 102° East 489 563 31,000  Level Cleveland Center
Wed 11:53:51 AM 41.6964 -82.8078 102° East 489 563 31,000  Level Cleveland Center
Wed 11:54:51 AM 41.6769 -82.6292 98° East 489 563 31,000  Level Cleveland Center
Wed 11:55:51 AM 41.6592 -82.4508 98° East 489 563 31,000  Level Cleveland Center
Wed 11:56:51 AM 41.6392 -82.2669 98° East 484 557 31,000  Level Cleveland Center
Wed 11:57:51 AM 41.6208 -82.0858 98° East 489 563 31,000  Level Cleveland Center
Wed 11:58:51 AM 41.6000 -81.9047 99° East 489 563 31,000 50 Level Cleveland Center
Wed 11:59:51 AM 41.5811 -81.7211 98° East 489 563 31,100  Climbing Cleveland Center
Wed 12:00:51 PM 41.5619 -81.5600 99° East 489 563 31,000 -50 Descending Cleveland Center
Wed 12:01:51 PM 41.5422 -81.3822 98° East 483 556 31,000  Level Cleveland Center
Wed 12:02:51 PM 41.5081 -81.2042 104° East 483 556 31,000  Level Cleveland Center
Wed 12:03:51 PM 41.4358 -81.0567 123° Southeast 473 544 31,000  Level Cleveland Center
Wed 12:04:51 PM 41.3383 -80.9122 132° Southeast 478 550 31,000 -300 Level Cleveland Center
Wed 12:05:51 PM 41.2447 -80.7875 135° Southeast 478 550 30,400 -800 Descending Cleveland Center
Wed 12:06:51 PM 41.1511 -80.6575 134° Southeast 483 556 29,400 -700 Descending Cleveland Center
Wed 12:07:51 PM 41.0781 -80.5308 127° Southeast 483 556 29,000 -200 Descending Cleveland Center
Wed 12:08:51 PM 41.0114 -80.3767 120° Southeast 483 556 29,000  Level Cleveland Center
Wed 12:09:51 PM 40.9422 -80.2203 120° Southeast 483 556 29,000  Level Cleveland Center
Wed 12:10:51 PM 40.8644 -80.0533 122° Southeast 489 563 29,000 -350 Level Cleveland Center
Wed 12:11:51 PM 40.7989 -79.8975 119° Southeast 489 563 28,300 -850 Descending Cleveland Center
Wed 12:12:51 PM 40.7519 -79.7253 110° East 483 556 27,300 -650 Descending Cleveland Center
Wed 12:13:51 PM 40.7086 -79.5478 108° East 495 570 27,000 -150 Descending Cleveland Center
Wed 12:14:51 PM 40.6653 -79.3706 108° East 505 581 27,000  Level Cleveland Center
Wed 12:15:51 PM 40.6236 -79.1961 107° East 500 575 27,000  Level Cleveland Center
Wed 12:16:51 PM 40.5775 -79.0194 109° East 500 575 27,000  Level Cleveland Center
Wed 12:17:51 PM 40.5356 -78.8483 108° East 500 575 27,000 -650 Level Cleveland Center
Wed 12:18:51 PM 40.5078 -78.6717 102° East 500 575 25,700 -736 Descending Cleveland Center
Wed 12:20:34 PM 40.4731 -78.3756 99° East 489 563 25,000 -256 Descending New York Center
Wed 12:21:35 PM 40.4508 -78.2011 99° East 489 563 25,000  Level New York Center
Wed 12:22:35 PM 40.4319 -78.0356 98° East 476 548 25,000  Level New York Center
Wed 12:23:35 PM 40.4069 -77.8639 101° East 470 541 25,000 -149 Level New York Center
Wed 12:24:36 PM 40.3856 -77.6953 99° East 470 541 24,700 -655 Descending New York Center
Wed 12:25:34 PM 40.3642 -77.5242 99° East 475 547 23,700 -958 Descending New York Center
Wed 12:26:35 PM 40.3419 -77.3642 100° East 468 539 22,800 -885 Descending New York Center
Wed 12:27:36 PM 40.3208 -77.2206 101° East 455 524 21,900 -950 Descending New York Center
Wed 12:28:35 PM 40.2961 -77.0575 101° East 455 524 20,900 -1,008 Descending New York Center
Wed 12:29:35 PM 40.2606 -76.9047 107° East 450 518 19,900 -942 Descending New York Center
Wed 12:30:36 PM 40.2283 -76.7578 106° East 433 498 19,000 -1,300 Descending New York Center
Wed 12:31:35 PM 40.1908 -76.5914 106° East 427 491 17,300 -1,966 Descending New York Center
Wed 12:32:35 PM 40.1667 -76.4481 102° East 417 480 15,100 -2,281 Descending New York Center
Wed 12:33:36 PM 40.1486 -76.3025 99° East 409 471 12,700 -2,298 Descending New York Center
Wed 12:34:09 PM 40.1403 -76.2275 98° East 403 464 11,500 -1,811 Descending FAA TRACON SMA TRACON (SMA)
Wed 12:34:29 PM 40.1353 -76.1808 98° East 398 458 11,100 -1,050 Descending FAA TRACON SMA TRACON (SMA)
Wed 12:34:49 PM 40.1275 -76.1281 101° East 370 426 10,800 -900 Descending FAA TRACON SMA TRACON (SMA)
Wed 12:35:09 PM 40.1236 -76.0892 97° East 354 407 10,500 -750 Descending FAA TRACON SMA TRACON (SMA)
Wed 12:35:29 PM 40.1183 -76.0519 100° East 339 390 10,300 -750 Descending FAA TRACON SMA TRACON (SMA)
Wed 12:35:49 PM 40.1144 -76.0083 97° East 328 377 10,000 -1,050 Descending FAA TRACON SMA TRACON (SMA)
Wed 12:36:09 PM 40.1069 -75.9736 106° East 318 366 9,600 -1,200 Descending FAA TRACON SMA TRACON (SMA)
Wed 12:36:29 PM 40.0900 -75.9478 131° Southeast 307 353 9,200 -1,650 Descending FAA TRACON SMA TRACON (SMA)
Wed 12:36:49 PM 40.0639 -75.9247 146° Southeast 307 353 8,500 -1,800 Descending FAA TRACON SMA TRACON (SMA)
Wed 12:37:09 PM 40.0408 -75.9056 148° Southeast 316 364 8,000 -1,350 Descending FAA TRACON SMA TRACON (SMA)
Wed 12:37:29 PM 40.0203 -75.8872 146° Southeast 301 346 7,600 -1,500 Descending FAA TRACON SMA TRACON (SMA)
Wed 12:37:49 PM 39.9942 -75.8656 148° Southeast 298 343 7,000 -1,500 Descending FAA TRACON SMA TRACON (SMA)
Wed 12:38:09 PM 39.9733 -75.8478 147° Southeast 297 342 6,600 -1,050 Descending FAA TRACON SMA TRACON (SMA)
Wed 12:38:29 PM 39.9511 -75.8294 148° Southeast 294 338 6,300 -1,350 Descending FAA TRACON SMA TRACON (SMA)
Wed 12:38:49 PM 39.9253 -75.8075 147° Southeast 289 333 5,700 -1,650 Descending FAA TRACON SMA TRACON (SMA)
Wed 12:39:09 PM 39.9061 -75.7906 146° Southeast 282 325 5,200 -1,050 Descending FAA TRACON SMA TRACON (SMA)
Wed 12:39:29 PM 39.8867 -75.7731 145° Southeast 281 323 5,000 -300 Descending FAA TRACON SMA TRACON (SMA)
Wed 12:39:49 PM 39.8675 -75.7467 133° Southeast 262 302 5,000 -419 Level FAA TRACON SMA TRACON (SMA)
Wed 12:40:12 PM 39.8622 -75.7208 105° East 257 296 4,700 -977 Descending FAA TRACON SMA TRACON (SMA)
Wed 12:40:32 PM 39.8558 -75.6869 104° East 246 283 4,300 -1,297 Descending FAA TRACON SMA TRACON (SMA)
Wed 12:40:49 PM 39.8522 -75.6603 100° East 242 278 3,900 -1,297 Descending FAA TRACON SMA TRACON (SMA)
Wed 12:41:09 PM 39.8525 -75.6353 89° East 233 268 3,500 -1,050 Descending FAA TRACON SMA TRACON (SMA)
Wed 12:41:29 PM 39.8503 -75.6089 96° East 233 268 3,200 -750 Descending FAA TRACON SMA TRACON (SMA)
Wed 12:41:49 PM 39.8486 -75.5764 94° East 233 268 3,000 -300 Descending FAA TRACON SMA TRACON (SMA)
Wed 12:42:09 PM 39.8467 -75.5539 96° East 231 266 3,000 -300 Level FAA TRACON SMA TRACON (SMA)
Wed 12:42:29 PM 39.8458 -75.5261 92° East 228 262 2,800 -1,050 Descending FAA TRACON SMA TRACON (SMA)
Wed 12:42:49 PM 39.8442 -75.4950 94° East 225 259 2,300 -1,350 Descending FAA TRACON SMA TRACON (SMA)
Wed 12:43:09 PM 39.8425 -75.4703 95° East 224 258 1,900 -1,200 Descending FAA TRACON SMA TRACON (SMA)

Login

Don't have an account? Register now (free) for customized features, flight alerts, and more!